createdAt,value
2023-03-07T00:00:18.241Z,12.50
2023-03-07T00:02:51.391Z,12.40
2023-03-07T00:05:20.586Z,12.00
2023-03-07T00:07:49.340Z,12.43
2023-03-07T00:10:20.024Z,11.60
2023-03-07T00:12:48.931Z,13.13
2023-03-07T00:15:17.915Z,13.10
2023-03-07T00:17:46.574Z,12.83
2023-03-07T00:20:15.705Z,13.13
2023-03-07T00:22:46.927Z,13.47
2023-03-07T00:25:16.403Z,13.00
2023-03-07T00:27:46.520Z,13.43
2023-03-07T00:30:15.363Z,14.40
2023-03-07T00:32:44.035Z,14.43
2023-03-07T00:35:12.778Z,14.50
2023-03-07T00:37:41.507Z,14.53
2023-03-07T00:40:11.768Z,14.23
2023-03-07T00:42:40.469Z,14.80
2023-03-07T00:45:11.640Z,14.30
2023-03-07T00:47:40.230Z,14.43
2023-03-07T00:50:09.545Z,15.57
2023-03-07T00:52:38.329Z,14.13
2023-03-07T00:55:07.970Z,14.47
2023-03-07T00:57:36.622Z,14.63
2023-03-07T01:00:06.239Z,14.60
2023-03-07T01:02:36.665Z,15.00
2023-03-07T01:05:06.423Z,14.80
2023-03-07T01:07:35.065Z,14.80
2023-03-07T01:10:05.520Z,14.57
2023-03-07T01:12:34.108Z,13.73
2023-03-07T01:15:05.536Z,14.60
2023-03-07T01:17:36.263Z,14.27
2023-03-07T01:20:07.243Z,14.70
2023-03-07T01:22:37.094Z,14.57
2023-03-07T01:25:08.092Z,14.93
2023-03-07T01:27:37.202Z,14.30
2023-03-07T01:30:06.737Z,14.13
2023-03-07T01:32:38.062Z,14.77
2023-03-07T01:35:07.509Z,13.27
2023-03-07T01:37:36.207Z,14.20
2023-03-07T01:40:08.049Z,13.63
2023-03-07T01:42:36.610Z,13.80
2023-03-07T01:45:08.863Z,13.37
2023-03-07T01:47:47.726Z,13.63
2023-03-07T01:50:18.896Z,13.87
2023-03-07T01:52:50.958Z,13.47
2023-03-07T01:55:22.456Z,13.90
2023-03-07T01:57:55.707Z,14.03
2023-03-07T02:00:28.874Z,13.30
2023-03-07T02:03:05.771Z,13.27
2023-03-07T02:05:39.198Z,13.33
2023-03-07T02:08:09.941Z,13.73
2023-03-07T02:10:39.174Z,12.90
2023-03-07T02:13:08.061Z,12.63
2023-03-07T02:15:37.803Z,12.70
2023-03-07T02:18:08.920Z,12.80
2023-03-07T02:20:43.898Z,13.33
2023-03-07T02:23:20.981Z,13.17
2023-03-07T02:25:58.274Z,12.70
2023-03-07T02:28:29.957Z,12.57
2023-03-07T02:31:00.804Z,12.70
2023-03-07T02:33:32.773Z,13.83
2023-03-07T02:36:09.395Z,12.57
2023-03-07T02:38:42.948Z,12.17
2023-03-07T02:41:15.162Z,13.50
2023-03-07T02:43:45.239Z,13.47
2023-03-07T02:46:14.123Z,12.33
2023-03-07T02:48:42.677Z,13.20
2023-03-07T02:51:12.160Z,13.37
2023-03-07T02:53:41.614Z,12.57
2023-03-07T02:56:10.152Z,12.63
2023-03-07T02:58:38.740Z,13.30
2023-03-07T03:01:09.118Z,12.43
2023-03-07T03:03:38.121Z,12.93
2023-03-07T03:06:07.114Z,13.13
2023-03-07T03:08:35.708Z,13.17
2023-03-07T03:11:04.276Z,13.43
2023-03-07T03:13:32.931Z,12.87
2023-03-07T03:16:01.740Z,13.20
2023-03-07T03:18:32.795Z,13.60
2023-03-07T03:21:09.274Z,13.70
2023-03-07T03:23:38.178Z,14.13
2023-03-07T03:26:09.861Z,13.83
2023-03-07T03:28:39.586Z,14.13
2023-03-07T03:31:10.550Z,13.93
2023-03-07T03:33:44.136Z,14.00
2023-03-07T03:36:16.351Z,14.00
2023-03-07T03:38:47.768Z,14.83
2023-03-07T03:41:17.152Z,14.27
2023-03-07T03:43:47.477Z,13.97
2023-03-07T03:46:19.624Z,14.17
2023-03-07T03:48:54.475Z,14.93
2023-03-07T03:51:26.383Z,14.17
2023-03-07T03:53:57.727Z,13.97
2023-03-07T03:56:28.290Z,13.93
2023-03-07T03:58:58.676Z,15.03
2023-03-07T04:01:29.631Z,14.97
2023-03-07T04:04:00.737Z,14.07
2023-03-07T04:06:31.504Z,15.57
2023-03-07T04:09:00.903Z,14.27
2023-03-07T04:11:29.562Z,15.40
2023-03-07T04:13:59.419Z,13.83
2023-03-07T04:16:28.080Z,14.67
2023-03-07T04:19:01.506Z,14.33
2023-03-07T04:21:30.325Z,14.57
2023-03-07T04:24:00.694Z,14.37
2023-03-07T04:26:32.003Z,14.50
2023-03-07T04:29:00.657Z,14.70
2023-03-07T04:31:40.897Z,14.27
2023-03-07T04:34:12.957Z,13.73
2023-03-07T04:36:41.862Z,14.27
2023-03-07T04:39:10.699Z,13.57
2023-03-07T04:41:39.790Z,14.73
2023-03-07T04:44:15.539Z,14.63
2023-03-07T04:46:44.703Z,13.90
2023-03-07T04:49:15.064Z,13.90
2023-03-07T04:51:44.162Z,14.20
2023-03-07T04:54:15.147Z,13.70
2023-03-07T04:56:44.278Z,14.03
2023-03-07T04:59:13.652Z,14.57
2023-03-07T05:01:43.097Z,13.47
2023-03-07T05:04:11.886Z,13.87
2023-03-07T05:06:42.469Z,13.93
2023-03-07T05:09:11.465Z,13.17
2023-03-07T05:11:40.695Z,14.30
2023-03-07T05:14:10.103Z,14.23
2023-03-07T05:16:38.927Z,13.60
2023-03-07T05:19:08.108Z,13.87
2023-03-07T05:21:40.022Z,13.20
2023-03-07T05:24:10.511Z,13.50
2023-03-07T05:26:40.780Z,13.80
2023-03-07T05:29:09.604Z,13.20
2023-03-07T05:31:38.428Z,14.03
2023-03-07T05:34:10.916Z,13.70
2023-03-07T05:36:41.147Z,13.23
2023-03-07T05:39:12.438Z,12.87
2023-03-07T05:41:40.991Z,12.73
2023-03-07T05:44:10.976Z,12.87
2023-03-07T05:46:39.912Z,12.83
2023-03-07T05:49:08.454Z,13.30
2023-03-07T05:51:37.146Z,12.80
2023-03-07T05:54:06.241Z,11.53
2023-03-07T05:56:37.869Z,12.97
2023-03-07T05:59:08.072Z,12.60
2023-03-07T06:01:37.135Z,12.50
2023-03-07T06:04:05.988Z,12.63
2023-03-07T06:06:35.013Z,12.63
2023-03-07T06:09:05.856Z,12.60
2023-03-07T06:11:36.582Z,13.10
2023-03-07T06:14:05.659Z,11.77
2023-03-07T06:16:34.420Z,13.57
2023-03-07T06:19:04.788Z,12.60
2023-03-07T06:21:33.727Z,11.93
2023-03-07T06:24:02.536Z,12.47
2023-03-07T06:26:31.086Z,13.10
2023-03-07T06:29:01.630Z,13.30
2023-03-07T06:31:30.171Z,12.80
2023-03-07T06:33:59.371Z,12.10
2023-03-07T06:36:28.887Z,11.50
2023-03-07T06:39:01.272Z,12.97
2023-03-07T06:41:30.358Z,12.33
2023-03-07T06:44:02.799Z,12.80
2023-03-07T06:46:33.832Z,12.07
2023-03-07T06:49:07.804Z,12.63
2023-03-07T06:51:38.125Z,12.90
2023-03-07T06:54:08.281Z,12.23
2023-03-07T06:56:37.024Z,12.73
2023-03-07T06:59:07.060Z,13.20
2023-03-07T07:01:40.788Z,12.63
2023-03-07T07:04:17.294Z,13.00
2023-03-07T07:06:45.996Z,12.50
2023-03-07T07:09:15.481Z,13.50
2023-03-07T07:11:44.110Z,13.47
2023-03-07T07:14:19.161Z,12.83
2023-03-07T07:16:48.586Z,13.17
2023-03-07T07:19:17.409Z,13.37
2023-03-07T07:21:46.125Z,12.73
2023-03-07T07:24:15.266Z,13.57
2023-03-07T07:26:44.546Z,13.27
2023-03-07T07:29:13.714Z,12.80
2023-03-07T07:31:44.171Z,13.00
2023-03-07T07:34:13.526Z,12.73
2023-03-07T07:36:42.265Z,12.17
2023-03-07T07:39:12.127Z,13.00
2023-03-07T07:41:44.525Z,12.70
2023-03-07T07:44:14.101Z,12.00
2023-03-07T07:46:56.341Z,12.10
2023-03-07T07:49:25.216Z,10.87
2023-03-07T07:51:53.882Z,12.37
2023-03-07T07:54:24.682Z,11.53
2023-03-07T07:56:53.946Z,11.70
2023-03-07T07:59:23.860Z,11.73
2023-03-07T08:01:53.084Z,11.07
2023-03-07T08:04:25.928Z,12.07
2023-03-07T08:06:54.870Z,10.83
2023-03-07T08:09:24.488Z,11.27
2023-03-07T08:11:53.353Z,11.57
2023-03-07T08:14:22.107Z,11.97
2023-03-07T08:16:50.815Z,10.53
2023-03-07T08:19:19.505Z,10.70
2023-03-07T08:21:49.592Z,10.93
2023-03-07T08:24:18.527Z,10.43
2023-03-07T08:26:47.139Z,10.43
2023-03-07T08:29:15.890Z,10.27
2023-03-07T08:31:45.995Z,10.53
2023-03-07T08:34:15.735Z,10.50
2023-03-07T08:36:44.555Z,10.40
2023-03-07T08:39:15.042Z,10.20
2023-03-07T08:41:43.694Z,10.47
2023-03-07T08:44:12.356Z,10.30
2023-03-07T08:46:41.393Z,9.80
2023-03-07T08:49:10.222Z,9.57
2023-03-07T08:51:39.036Z,10.17
2023-03-07T08:54:07.899Z,9.53
2023-03-07T08:56:44.397Z,10.10
2023-03-07T08:59:26.267Z,9.87
2023-03-07T09:01:55.121Z,9.10
2023-03-07T09:04:24.011Z,10.13
2023-03-07T09:06:52.893Z,9.07
2023-03-07T09:09:21.785Z,8.90
2023-03-07T09:11:51.903Z,9.20
2023-03-07T09:14:20.705Z,9.50
2023-03-07T09:16:49.566Z,9.07
2023-03-07T09:19:18.410Z,9.07
2023-03-07T09:21:47.224Z,9.70
2023-03-07T09:24:15.836Z,8.33
2023-03-07T09:26:44.705Z,8.20
2023-03-07T09:29:14.935Z,9.50
2023-03-07T09:31:44.423Z,8.63
2023-03-07T09:34:13.245Z,7.90
2023-03-07T09:36:41.969Z,8.00
2023-03-07T09:39:14.593Z,8.63
2023-03-07T09:42:01.779Z,8.10
2023-03-07T09:44:58.293Z,8.73
2023-03-07T09:48:12.458Z,8.40
2023-03-07T09:50:48.572Z,8.63
2023-03-07T09:53:24.429Z,8.40
2023-03-07T09:55:56.200Z,8.60
2023-03-07T09:58:27.018Z,8.27
2023-03-07T10:01:00.958Z,8.50
2023-03-07T10:03:40.358Z,8.20
2023-03-07T10:06:15.595Z,8.53
2023-03-07T10:08:44.646Z,7.97
2023-03-07T10:11:24.844Z,8.00
2023-03-07T10:14:05.694Z,8.10
2023-03-07T10:16:46.563Z,7.93
2023-03-07T10:19:21.620Z,7.63
2023-03-07T10:21:59.718Z,7.90
2023-03-07T10:24:44.763Z,7.67
2023-03-07T10:27:14.626Z,7.37
2023-03-07T10:29:48.424Z,7.50
2023-03-07T10:32:27.554Z,7.60
2023-03-07T10:35:01.436Z,8.10
2023-03-07T10:37:43.951Z,7.80
2023-03-07T10:40:21.290Z,7.73
2023-03-07T10:42:50.017Z,7.47
2023-03-07T10:45:19.071Z,7.57
2023-03-07T10:47:49.402Z,8.33
2023-03-07T10:50:32.846Z,7.70
2023-03-07T10:53:03.626Z,7.20
2023-03-07T10:55:34.499Z,7.57
2023-03-07T10:58:31.071Z,7.80
2023-03-07T11:01:13.577Z,7.13
2023-03-07T11:03:54.729Z,7.40
2023-03-07T11:06:40.567Z,7.17
2023-03-07T11:09:20.295Z,6.77
2023-03-07T11:11:51.655Z,6.63
2023-03-07T11:14:21.990Z,6.43
2023-03-07T11:16:56.181Z,7.47
2023-03-07T11:19:33.249Z,7.40
2023-03-07T11:22:04.382Z,7.93
2023-03-07T11:24:38.042Z,6.60
2023-03-07T11:27:07.502Z,6.37
2023-03-07T11:29:36.157Z,6.60
2023-03-07T11:32:14.191Z,6.00
2023-03-07T11:34:50.616Z,6.37
2023-03-07T11:37:29.412Z,6.80
2023-03-07T11:40:23.586Z,6.53
2023-03-07T11:43:00.629Z,6.00
2023-03-07T11:45:38.434Z,7.30
2023-03-07T11:48:16.522Z,7.00
2023-03-07T11:50:55.208Z,7.57
2023-03-07T11:53:31.501Z,6.87
2023-03-07T11:56:22.578Z,6.33
2023-03-07T11:59:13.733Z,5.20
2023-03-07T12:01:49.268Z,6.17
2023-03-07T12:04:46.610Z,6.13
2023-03-07T12:07:38.852Z,5.73
2023-03-07T12:10:18.090Z,6.20
2023-03-07T12:12:57.095Z,5.93
2023-03-07T12:15:33.213Z,6.00
2023-03-07T12:18:25.819Z,5.93
2023-03-07T12:21:06.689Z,6.20
2023-03-07T12:23:42.776Z,5.93
2023-03-07T12:26:17.123Z,6.10
2023-03-07T12:28:51.159Z,5.70
2023-03-07T12:31:25.980Z,5.80
2023-03-07T12:34:02.997Z,5.70
2023-03-07T12:36:37.833Z,5.93
2023-03-07T12:39:17.414Z,5.70
2023-03-07T12:42:03.468Z,6.00
2023-03-07T12:44:37.603Z,5.73
2023-03-07T12:47:14.406Z,5.30
2023-03-07T12:49:50.506Z,5.67
2023-03-07T12:52:31.652Z,5.60
2023-03-07T12:55:08.818Z,5.73
2023-03-07T12:57:43.882Z,5.53
2023-03-07T13:00:18.393Z,5.47
2023-03-07T13:02:54.585Z,5.70
2023-03-07T13:05:24.069Z,4.70
2023-03-07T13:07:53.679Z,5.63
2023-03-07T13:10:25.854Z,5.40
2023-03-07T13:12:54.611Z,5.53
2023-03-07T13:15:56.743Z,5.33
2023-03-07T13:18:30.392Z,5.33
2023-03-07T13:21:32.870Z,5.40
2023-03-07T13:24:33.398Z,5.10
2023-03-07T13:27:04.112Z,5.63
2023-03-07T13:30:07.425Z,5.20
2023-03-07T13:32:59.104Z,5.37
2023-03-07T13:35:56.378Z,4.77
2023-03-07T13:38:36.229Z,5.23
2023-03-07T13:41:05.816Z,4.60
2023-03-07T13:43:56.652Z,4.70
2023-03-07T13:46:55.750Z,5.20
2023-03-07T13:49:44.627Z,5.33
2023-03-07T13:52:34.554Z,4.80
2023-03-07T13:55:06.042Z,5.17
2023-03-07T13:57:41.904Z,4.77
2023-03-07T14:00:38.386Z,4.73
2023-03-07T14:03:27.622Z,5.27
2023-03-07T14:05:58.381Z,5.50
2023-03-07T14:08:33.113Z,5.70
2023-03-07T14:11:02.138Z,5.40
2023-03-07T14:13:58.053Z,5.27
2023-03-07T14:16:47.276Z,5.73
2023-03-07T14:19:28.584Z,5.87
2023-03-07T14:22:04.079Z,5.17
2023-03-07T14:24:51.871Z,5.67
2023-03-07T14:27:20.635Z,5.57
2023-03-07T14:29:52.089Z,5.50
2023-03-07T14:32:26.457Z,5.50
2023-03-07T14:34:55.236Z,5.50
2023-03-07T14:37:26.635Z,5.30
2023-03-07T14:40:29.151Z,5.43
2023-03-07T14:43:09.943Z,5.67
2023-03-07T14:45:42.145Z,5.87
2023-03-07T14:48:36.919Z,5.73
2023-03-07T14:51:13.260Z,5.77
2023-03-07T14:53:42.991Z,5.83
2023-03-07T14:56:12.802Z,6.30
2023-03-07T14:58:49.505Z,5.80
2023-03-07T15:01:20.023Z,5.57
2023-03-07T15:03:52.478Z,6.00
2023-03-07T15:06:23.333Z,5.90
2023-03-07T15:08:52.443Z,5.63
2023-03-07T15:11:30.129Z,6.10
2023-03-07T15:14:01.273Z,5.70
2023-03-07T15:16:33.264Z,6.17
2023-03-07T15:19:07.334Z,6.43
2023-03-07T15:21:41.735Z,5.63
2023-03-07T15:24:19.004Z,5.73
2023-03-07T15:26:52.334Z,6.10
2023-03-07T15:29:23.563Z,6.20
2023-03-07T15:31:54.161Z,5.97
2023-03-07T15:34:28.001Z,6.00
2023-03-07T15:36:56.736Z,6.77
2023-03-07T15:39:35.769Z,6.37
2023-03-07T15:42:06.809Z,6.07
2023-03-07T15:44:36.451Z,6.30
2023-03-07T15:47:14.213Z,5.83
2023-03-07T15:49:47.321Z,5.53
2023-03-07T15:52:30.610Z,5.83
2023-03-07T15:55:01.122Z,5.60
2023-03-07T15:57:33.762Z,5.70
2023-03-07T16:00:05.619Z,5.80
2023-03-07T16:02:43.977Z,5.90
2023-03-07T16:05:37.719Z,5.90
2023-03-07T16:08:17.089Z,6.17
2023-03-07T16:10:53.479Z,6.30
2023-03-07T16:13:24.812Z,5.90
2023-03-07T16:16:04.553Z,5.90
2023-03-07T16:18:33.955Z,6.23
2023-03-07T16:21:04.368Z,5.97
2023-03-07T16:23:34.260Z,5.67
2023-03-07T16:26:06.136Z,5.83
2023-03-07T16:28:35.651Z,6.53
2023-03-07T16:31:04.461Z,5.80
2023-03-07T16:33:33.442Z,5.70
2023-03-07T16:36:03.712Z,6.40
2023-03-07T16:38:32.391Z,6.10
2023-03-07T16:41:04.574Z,6.10
2023-03-07T16:43:35.478Z,6.10
2023-03-07T16:46:05.645Z,5.60
2023-03-07T16:48:35.005Z,6.63
2023-03-07T16:51:05.436Z,6.43
2023-03-07T16:53:34.159Z,6.60
2023-03-07T16:56:02.821Z,6.70
2023-03-07T16:58:35.124Z,6.90
2023-03-07T17:01:03.894Z,6.90
2023-03-07T17:03:32.799Z,11.03
2023-03-07T17:06:01.377Z,7.37
2023-03-07T17:08:31.509Z,7.17
2023-03-07T17:11:00.287Z,10.47
2023-03-07T17:13:28.990Z,6.27
2023-03-07T17:15:58.024Z,6.53
2023-03-07T17:18:29.630Z,6.93
2023-03-07T17:20:58.207Z,6.80
2023-03-07T17:23:26.899Z,6.43
2023-03-07T17:25:57.097Z,6.50
2023-03-07T17:28:26.024Z,5.93
2023-03-07T17:30:55.669Z,6.07
2023-03-07T17:33:26.713Z,6.10
2023-03-07T17:35:58.256Z,6.20
2023-03-07T17:38:26.931Z,6.10
2023-03-07T17:40:57.721Z,5.87
2023-03-07T17:43:26.306Z,6.10
2023-03-07T17:45:55.068Z,6.23
2023-03-07T17:48:23.729Z,6.83
2023-03-07T17:50:52.350Z,6.70
2023-03-07T17:53:21.115Z,5.90
2023-03-07T17:55:49.654Z,6.07
2023-03-07T17:58:20.287Z,6.30
2023-03-07T18:00:48.955Z,6.37
2023-03-07T18:03:17.513Z,6.50
2023-03-07T18:05:46.060Z,5.87
2023-03-07T18:08:14.615Z,6.07
2023-03-07T18:10:43.506Z,5.80
2023-03-07T18:13:14.997Z,5.90
2023-03-07T18:15:48.645Z,6.27
2023-03-07T18:18:17.561Z,5.90
2023-03-07T18:20:46.126Z,6.03
2023-03-07T18:23:14.643Z,5.90
2023-03-07T18:25:43.193Z,6.27
2023-03-07T18:28:12.797Z,6.47
2023-03-07T18:30:41.475Z,6.83
2023-03-07T18:33:11.572Z,6.93
2023-03-07T18:35:40.405Z,6.33
2023-03-07T18:38:09.382Z,6.60
2023-03-07T18:40:37.962Z,6.30
2023-03-07T18:43:06.712Z,6.17
2023-03-07T18:45:35.361Z,6.77
2023-03-07T18:48:03.896Z,6.03
2023-03-07T18:50:33.999Z,6.07
2023-03-07T18:53:02.655Z,6.60
2023-03-07T18:55:33.154Z,6.40
2023-03-07T18:58:01.853Z,6.57
2023-03-07T19:00:30.578Z,6.70
2023-03-07T19:02:59.387Z,6.73
2023-03-07T19:05:28.115Z,6.60
2023-03-07T19:07:58.193Z,6.47
2023-03-07T19:10:26.819Z,6.60
2023-03-07T19:12:55.541Z,6.23
2023-03-07T19:15:24.247Z,6.60
2023-03-07T19:17:52.838Z,6.90
2023-03-07T19:20:21.693Z,7.30
2023-03-07T19:22:53.650Z,7.10
2023-03-07T19:25:23.733Z,6.60
2023-03-07T19:27:52.388Z,6.60
2023-03-07T19:30:21.284Z,6.67
2023-03-07T19:32:50.189Z,6.73
2023-03-07T19:35:19.000Z,6.63
2023-03-07T19:37:47.798Z,7.53
2023-03-07T19:40:16.478Z,6.80
2023-03-07T19:42:46.656Z,6.70
2023-03-07T19:45:15.239Z,6.73
2023-03-07T19:47:43.873Z,6.47
2023-03-07T19:50:13.435Z,6.63
2023-03-07T19:52:42.093Z,6.43
2023-03-07T19:55:11.246Z,6.67
2023-03-07T19:57:40.332Z,11.13
2023-03-07T20:00:12.107Z,8.43
2023-03-07T20:02:40.690Z,9.40
2023-03-07T20:05:09.905Z,8.57
2023-03-07T20:07:38.476Z,7.50
2023-03-07T20:10:07.951Z,7.13
2023-03-07T20:12:36.719Z,7.53
2023-03-07T20:15:05.760Z,6.90
2023-03-07T20:17:35.778Z,7.03
2023-03-07T20:20:08.007Z,7.40
2023-03-07T20:22:36.717Z,7.30
2023-03-07T20:25:08.076Z,7.03
2023-03-07T20:27:36.673Z,8.10
2023-03-07T20:30:06.452Z,6.83
2023-03-07T20:32:36.584Z,6.90
2023-03-07T20:35:05.522Z,7.23
2023-03-07T20:37:34.919Z,6.63
2023-03-07T20:40:05.327Z,6.53
2023-03-07T20:42:34.114Z,6.80
2023-03-07T20:45:02.741Z,7.00
2023-03-07T20:47:32.553Z,6.47
2023-03-07T20:50:02.636Z,6.60
2023-03-07T20:52:31.125Z,7.07
2023-03-07T20:55:00.877Z,6.87
2023-03-07T20:57:29.527Z,6.70
2023-03-07T20:59:58.372Z,7.10
2023-03-07T21:02:27.056Z,6.57
2023-03-07T21:04:55.781Z,6.63
2023-03-07T21:07:25.920Z,7.20
2023-03-07T21:09:54.610Z,7.73
2023-03-07T21:12:23.188Z,7.00
2023-03-07T21:14:51.740Z,5.97
2023-03-07T21:17:20.413Z,7.07
2023-03-07T21:19:48.947Z,6.87
2023-03-07T21:22:17.701Z,7.63
2023-03-07T21:24:47.927Z,6.27
2023-03-07T21:27:16.589Z,6.53
2023-03-07T21:29:45.190Z,6.00
2023-03-07T21:32:14.061Z,6.60
2023-03-07T21:34:42.693Z,6.70
2023-03-07T21:37:11.471Z,6.80
2023-03-07T21:39:40.253Z,7.17
2023-03-07T21:42:10.340Z,8.17
2023-03-07T21:44:39.174Z,6.80
2023-03-07T21:47:07.809Z,6.53
2023-03-07T21:49:36.506Z,6.43
2023-03-07T21:52:05.183Z,6.07
2023-03-07T21:54:34.298Z,6.40
2023-03-07T21:57:04.214Z,6.67
2023-03-07T21:59:34.837Z,6.27
2023-03-07T22:02:03.530Z,6.70
2023-03-07T22:04:32.234Z,6.27
2023-03-07T22:07:00.914Z,6.00
2023-03-07T22:09:29.629Z,6.33
2023-03-07T22:11:58.185Z,6.77
2023-03-07T22:14:26.847Z,6.87
2023-03-07T22:16:57.088Z,6.30
2023-03-07T22:19:25.821Z,6.63
2023-03-07T22:21:54.510Z,6.60
2023-03-07T22:24:23.240Z,6.67
2023-03-07T22:26:52.084Z,6.77
2023-03-07T22:29:20.894Z,6.47
2023-03-07T22:31:49.384Z,6.37
2023-03-07T22:34:19.705Z,6.37
2023-03-07T22:36:48.217Z,6.00
2023-03-07T22:39:17.192Z,6.20
2023-03-07T22:41:45.797Z,6.23
2023-03-07T22:44:15.445Z,6.40
2023-03-07T22:46:45.128Z,6.30
2023-03-07T22:49:14.534Z,6.90
2023-03-07T22:51:44.662Z,6.23
2023-03-07T22:54:13.670Z,6.30
2023-03-07T22:56:42.397Z,6.47
2023-03-07T22:59:11.452Z,6.33
2023-03-07T23:01:40.525Z,6.30
2023-03-07T23:04:10.236Z,6.47
2023-03-07T23:06:39.267Z,7.30
2023-03-07T23:09:10.246Z,6.43
2023-03-07T23:11:40.009Z,7.33
2023-03-07T23:14:08.521Z,6.50
2023-03-07T23:16:39.413Z,7.40
2023-03-07T23:19:07.960Z,6.77
2023-03-07T23:21:38.666Z,6.70
2023-03-07T23:24:07.716Z,6.93
2023-03-07T23:26:39.532Z,7.10
2023-03-07T23:29:09.962Z,6.53
2023-03-07T23:31:40.642Z,6.60
2023-03-07T23:34:15.318Z,6.63
2023-03-07T23:36:44.335Z,6.90
2023-03-07T23:39:13.492Z,6.03
2023-03-07T23:41:43.618Z,6.77
2023-03-07T23:44:13.124Z,6.67
2023-03-07T23:46:41.840Z,6.40
2023-03-07T23:49:11.799Z,6.60
2023-03-07T23:51:40.436Z,6.93
2023-03-07T23:54:09.251Z,6.40
2023-03-07T23:56:37.981Z,7.27
2023-03-07T23:59:11.199Z,6.73
